createdAt,value
2023-03-11T00:00:22.725Z,1.27
2023-03-11T00:02:30.511Z,1.48
2023-03-11T00:04:38.675Z,1.48
2023-03-11T00:06:46.503Z,1.52
2023-03-11T00:08:55.071Z,1.20
2023-03-11T00:11:03.404Z,1.50
2023-03-11T00:13:16.231Z,1.25
2023-03-11T00:15:24.157Z,1.45
2023-03-11T00:17:32.091Z,1.50
2023-03-11T00:19:39.897Z,1.30
2023-03-11T00:21:47.718Z,1.45
2023-03-11T00:23:55.498Z,1.40
2023-03-11T00:26:03.874Z,2.03
2023-03-11T00:28:30.810Z,2.55
2023-03-11T00:30:41.436Z,1.20
2023-03-11T00:32:50.610Z,1.52
2023-03-11T00:34:58.541Z,1.40
2023-03-11T00:37:06.518Z,1.48
2023-03-11T00:39:15.227Z,1.65
2023-03-11T00:41:25.085Z,1.95
2023-03-11T00:43:35.432Z,1.55
2023-03-11T00:45:44.933Z,1.95
2023-03-11T00:47:53.792Z,1.30
2023-03-11T00:50:01.870Z,1.48
2023-03-11T00:52:09.977Z,1.65
2023-03-11T00:54:17.805Z,1.70
2023-03-11T00:56:25.789Z,1.60
2023-03-11T00:58:36.520Z,2.22
2023-03-11T01:00:44.533Z,1.73
2023-03-11T01:02:53.046Z,1.48
2023-03-11T01:05:00.972Z,1.90
2023-03-11T01:07:11.278Z,4.35
2023-03-11T01:09:19.297Z,1.98
2023-03-11T01:11:27.278Z,1.73
2023-03-11T01:13:38.583Z,2.22
2023-03-11T01:15:46.432Z,2.00
2023-03-11T01:17:56.192Z,1.90
2023-03-11T01:20:06.195Z,2.08
2023-03-11T01:22:14.260Z,2.13
2023-03-11T01:24:22.226Z,1.65
2023-03-11T01:26:30.162Z,2.25
2023-03-11T01:28:40.642Z,2.30
2023-03-11T01:30:48.582Z,2.55
2023-03-11T01:32:57.867Z,2.38
2023-03-11T01:35:05.913Z,1.90
2023-03-11T01:37:14.464Z,1.90
2023-03-11T01:39:22.426Z,2.25
2023-03-11T01:41:30.663Z,1.80
2023-03-11T01:43:54.707Z,1.92
2023-03-11T01:46:14.082Z,2.03
2023-03-11T01:48:23.240Z,2.15
2023-03-11T01:50:35.614Z,1.35
2023-03-11T01:52:45.621Z,1.90
2023-03-11T01:54:53.485Z,1.70
2023-03-11T01:57:08.726Z,1.88
2023-03-11T01:59:24.189Z,2.00
2023-03-11T02:01:32.589Z,3.55
2023-03-11T02:03:44.326Z,1.88
2023-03-11T02:05:54.439Z,3.67
2023-03-11T02:08:03.060Z,2.22
2023-03-11T02:10:16.404Z,2.60
2023-03-11T02:12:24.625Z,2.85
2023-03-11T02:14:35.832Z,2.42
2023-03-11T02:16:43.705Z,4.60
2023-03-11T02:18:51.915Z,1.60
2023-03-11T02:21:09.964Z,2.20
2023-03-11T02:23:20.731Z,3.53
2023-03-11T02:25:38.000Z,2.60
2023-03-11T02:27:51.920Z,3.63
2023-03-11T02:30:02.709Z,2.63
2023-03-11T02:32:15.562Z,2.50
2023-03-11T02:34:28.752Z,2.13
2023-03-11T02:36:38.843Z,4.32
2023-03-11T02:38:48.857Z,2.10
2023-03-11T02:40:58.521Z,1.92
2023-03-11T02:43:13.454Z,2.00
2023-03-11T02:45:25.209Z,2.88
2023-03-11T02:47:35.430Z,2.17
2023-03-11T02:49:43.959Z,2.17
2023-03-11T02:51:52.433Z,2.40
2023-03-11T02:54:04.840Z,2.35
2023-03-11T02:56:13.505Z,1.90
2023-03-11T02:58:24.293Z,2.25
2023-03-11T03:00:32.453Z,3.53
2023-03-11T03:02:46.482Z,2.72
2023-03-11T03:04:55.101Z,3.92
2023-03-11T03:07:03.273Z,2.28
2023-03-11T03:09:12.135Z,1.90
2023-03-11T03:11:20.207Z,1.60
2023-03-11T03:13:32.515Z,1.80
2023-03-11T03:15:41.135Z,1.88
2023-03-11T03:17:51.605Z,1.63
2023-03-11T03:20:00.091Z,2.28
2023-03-11T03:22:08.616Z,2.35
2023-03-11T03:24:16.554Z,1.70
2023-03-11T03:26:24.635Z,1.50
2023-03-11T03:28:35.687Z,2.40
2023-03-11T03:30:44.771Z,3.97
2023-03-11T03:32:54.751Z,2.38
2023-03-11T03:35:03.462Z,1.85
2023-03-11T03:37:30.106Z,1.88
2023-03-11T03:39:38.186Z,2.08
2023-03-11T03:41:46.857Z,2.95
2023-03-11T03:43:58.370Z,1.65
2023-03-11T03:46:08.372Z,4.03
2023-03-11T03:48:21.214Z,1.60
2023-03-11T03:50:29.317Z,1.50
2023-03-11T03:52:38.585Z,1.55
2023-03-11T03:54:46.462Z,1.70
2023-03-11T03:56:56.616Z,2.97
2023-03-11T03:59:07.357Z,3.28
2023-03-11T04:01:20.337Z,3.47
2023-03-11T04:03:29.997Z,1.65
2023-03-11T04:05:43.013Z,1.77
2023-03-11T04:07:51.629Z,2.33
2023-03-11T04:09:59.676Z,3.70
2023-03-11T04:12:08.265Z,1.80
2023-03-11T04:14:19.808Z,2.05
2023-03-11T04:16:35.435Z,2.20
2023-03-11T04:18:50.841Z,1.60
2023-03-11T04:21:03.389Z,1.50
2023-03-11T04:23:13.092Z,2.75
2023-03-11T04:25:21.364Z,2.15
2023-03-11T04:27:33.796Z,1.80
2023-03-11T04:29:46.524Z,3.97
2023-03-11T04:31:54.462Z,2.00
2023-03-11T04:34:02.558Z,3.20
2023-03-11T04:36:12.202Z,4.95
2023-03-11T04:38:20.216Z,2.10
2023-03-11T04:40:31.493Z,2.10
2023-03-11T04:42:39.615Z,3.17
2023-03-11T04:44:50.642Z,1.98
2023-03-11T04:46:58.709Z,1.95
2023-03-11T04:49:06.793Z,4.65
2023-03-11T04:51:15.075Z,2.45
2023-03-11T04:53:23.318Z,2.20
2023-03-11T04:55:33.468Z,1.67
2023-03-11T04:57:41.697Z,1.80
2023-03-11T04:59:53.899Z,2.00
2023-03-11T05:02:01.925Z,1.77
2023-03-11T05:04:11.459Z,1.90
2023-03-11T05:06:20.376Z,1.95
2023-03-11T05:08:30.076Z,2.83
2023-03-11T05:10:38.000Z,1.73
2023-03-11T05:12:47.884Z,1.58
2023-03-11T05:14:58.653Z,1.67
2023-03-11T05:17:07.100Z,4.05
2023-03-11T05:19:27.447Z,2.20
2023-03-11T05:21:36.351Z,2.03
2023-03-11T05:23:45.312Z,3.35
2023-03-11T05:25:54.742Z,2.35
2023-03-11T05:28:02.810Z,1.65
2023-03-11T05:30:15.580Z,2.58
2023-03-11T05:32:24.918Z,2.03
2023-03-11T05:34:34.259Z,4.90
2023-03-11T05:36:42.273Z,3.55
2023-03-11T05:38:50.181Z,2.08
2023-03-11T05:40:58.071Z,4.80
2023-03-11T05:43:06.219Z,1.67
2023-03-11T05:45:21.405Z,3.10
2023-03-11T05:47:31.265Z,2.70
2023-03-11T05:49:39.687Z,2.85
2023-03-11T05:51:47.902Z,3.00
2023-03-11T05:53:55.856Z,2.28
2023-03-11T05:56:12.911Z,1.48
2023-03-11T05:58:21.434Z,3.55
2023-03-11T06:00:32.415Z,2.22
2023-03-11T06:02:43.898Z,2.15
2023-03-11T06:04:55.500Z,1.92
2023-03-11T06:07:03.692Z,2.25
2023-03-11T06:09:15.362Z,3.33
2023-03-11T06:11:25.730Z,2.55
2023-03-11T06:13:34.450Z,4.05
2023-03-11T06:15:47.302Z,4.22
2023-03-11T06:17:58.167Z,3.35
2023-03-11T06:20:10.033Z,3.10
2023-03-11T06:22:18.525Z,2.25
2023-03-11T06:24:26.439Z,2.15
2023-03-11T06:26:34.682Z,4.13
2023-03-11T06:28:43.076Z,2.28
2023-03-11T06:30:53.535Z,2.97
2023-03-11T06:33:01.339Z,2.72
2023-03-11T06:35:10.480Z,2.58
2023-03-11T06:37:18.643Z,2.03
2023-03-11T06:39:26.374Z,3.88
2023-03-11T06:41:36.974Z,4.03
2023-03-11T06:43:46.677Z,4.40
2023-03-11T06:45:57.992Z,3.08
2023-03-11T06:48:06.518Z,2.35
2023-03-11T06:50:15.378Z,1.67
2023-03-11T06:52:23.770Z,7.28
2023-03-11T06:54:31.722Z,2.88
2023-03-11T06:56:39.651Z,1.65
2023-03-11T06:58:49.548Z,4.00
2023-03-11T07:01:04.011Z,3.45
2023-03-11T07:03:12.424Z,3.38
2023-03-11T07:05:20.292Z,2.63
2023-03-11T07:07:29.597Z,2.40
2023-03-11T07:09:37.860Z,2.95
2023-03-11T07:11:47.926Z,5.88
2023-03-11T07:14:02.065Z,2.33
2023-03-11T07:16:19.481Z,2.70
2023-03-11T07:18:28.315Z,1.55
2023-03-11T07:20:37.529Z,2.83
2023-03-11T07:22:45.383Z,2.70
2023-03-11T07:24:53.931Z,4.05
2023-03-11T07:27:01.768Z,1.88
2023-03-11T07:29:11.601Z,3.10
2023-03-11T07:31:24.863Z,2.95
2023-03-11T07:33:34.304Z,1.70
2023-03-11T07:35:42.266Z,2.70
2023-03-11T07:37:50.295Z,1.50
2023-03-11T07:39:58.485Z,3.95
2023-03-11T07:42:07.888Z,3.25
2023-03-11T07:44:18.350Z,5.28
2023-03-11T07:46:30.801Z,3.70
2023-03-11T07:48:40.228Z,2.42
2023-03-11T07:50:48.496Z,2.00
2023-03-11T07:52:56.911Z,2.67
2023-03-11T07:55:08.129Z,2.65
2023-03-11T07:57:17.378Z,5.72
2023-03-11T07:59:26.471Z,2.17
2023-03-11T08:01:41.465Z,6.20
2023-03-11T08:03:51.293Z,3.13
2023-03-11T08:05:59.101Z,4.60
2023-03-11T08:08:07.139Z,2.13
2023-03-11T08:10:15.791Z,4.40
2023-03-11T08:12:23.548Z,6.30
2023-03-11T08:14:31.462Z,3.55
2023-03-11T08:16:42.756Z,4.25
2023-03-11T08:18:52.320Z,2.22
2023-03-11T08:21:00.305Z,3.03
2023-03-11T08:23:08.583Z,2.58
2023-03-11T08:25:16.374Z,1.88
2023-03-11T08:27:24.276Z,6.55
2023-03-11T08:29:32.539Z,3.10
2023-03-11T08:31:43.043Z,1.55
2023-03-11T08:33:52.946Z,3.65
2023-03-11T08:36:00.987Z,1.83
2023-03-11T08:38:08.978Z,3.22
2023-03-11T08:40:17.226Z,4.18
2023-03-11T08:42:25.218Z,1.90
2023-03-11T08:44:33.196Z,2.05
2023-03-11T08:46:43.872Z,2.55
2023-03-11T08:48:51.877Z,2.65
2023-03-11T08:50:59.943Z,3.13
2023-03-11T08:53:08.966Z,2.17
2023-03-11T08:55:25.155Z,2.22
2023-03-11T08:57:33.120Z,8.48
2023-03-11T08:59:41.124Z,2.35
2023-03-11T09:01:51.675Z,4.50
2023-03-11T09:03:59.518Z,3.92
2023-03-11T09:06:10.954Z,5.28
2023-03-11T09:08:18.854Z,3.45
2023-03-11T09:10:26.992Z,4.60
2023-03-11T09:12:35.326Z,2.22
2023-03-11T09:14:44.701Z,2.05
2023-03-11T09:16:55.292Z,2.53
2023-03-11T09:19:07.027Z,3.90
2023-03-11T09:21:15.752Z,2.80
2023-03-11T09:23:23.666Z,3.22
2023-03-11T09:25:31.867Z,3.20
2023-03-11T09:27:41.544Z,6.43
2023-03-11T09:29:49.560Z,3.15
2023-03-11T09:32:00.548Z,3.55
2023-03-11T09:34:09.115Z,3.15
2023-03-11T09:36:18.391Z,3.60
2023-03-11T09:38:26.549Z,3.50
2023-03-11T09:40:48.589Z,3.33
2023-03-11T09:43:06.802Z,3.80
2023-03-11T09:45:19.439Z,2.58
2023-03-11T09:47:46.659Z,1.60
2023-03-11T09:50:09.513Z,1.27
2023-03-11T09:52:23.294Z,4.85
2023-03-11T09:54:36.831Z,1.25
2023-03-11T09:56:45.613Z,1.70
2023-03-11T09:58:55.889Z,2.08
2023-03-11T10:01:04.354Z,1.48
2023-03-11T10:03:27.993Z,3.70
2023-03-11T10:05:36.035Z,2.70
2023-03-11T10:07:46.880Z,1.67
2023-03-11T10:09:56.827Z,2.40
2023-03-11T10:12:22.165Z,3.15
2023-03-11T10:14:48.469Z,2.45
2023-03-11T10:17:04.008Z,2.67
2023-03-11T10:19:28.520Z,1.83
2023-03-11T10:21:47.100Z,1.52
2023-03-11T10:24:06.112Z,4.85
2023-03-11T10:26:23.631Z,2.13
2023-03-11T10:28:36.543Z,2.90
2023-03-11T10:30:48.173Z,2.35
2023-03-11T10:33:02.590Z,1.42
2023-03-11T10:35:19.953Z,1.90
2023-03-11T10:37:48.033Z,2.00
2023-03-11T10:39:57.380Z,0.70
2023-03-11T10:42:07.672Z,1.27
2023-03-11T10:44:19.553Z,1.13
2023-03-11T10:46:29.127Z,1.75
2023-03-11T10:48:38.375Z,1.63
2023-03-11T10:50:53.521Z,2.60
2023-03-11T10:53:10.644Z,1.80
2023-03-11T10:55:21.476Z,1.85
2023-03-11T10:57:31.308Z,2.00
2023-03-11T10:59:50.688Z,1.95
2023-03-11T11:02:01.112Z,3.55
2023-03-11T11:04:30.418Z,1.65
2023-03-11T11:06:40.981Z,1.52
2023-03-11T11:08:49.476Z,1.73
2023-03-11T11:10:58.560Z,2.00
2023-03-11T11:13:22.837Z,1.70
2023-03-11T11:15:36.024Z,1.83
2023-03-11T11:17:49.827Z,5.40
2023-03-11T11:19:59.254Z,1.60
2023-03-11T11:22:09.632Z,2.58
2023-03-11T11:24:23.795Z,3.53
2023-03-11T11:26:33.021Z,2.95
2023-03-11T11:28:40.949Z,2.22
2023-03-11T11:30:57.850Z,1.60
2023-03-11T11:33:26.197Z,2.08
2023-03-11T11:35:34.330Z,3.33
2023-03-11T11:37:49.413Z,2.22
2023-03-11T11:40:00.525Z,2.00
2023-03-11T11:42:13.079Z,1.50
2023-03-11T11:44:24.822Z,1.50
2023-03-11T11:46:40.241Z,2.35
2023-03-11T11:48:52.629Z,3.08
2023-03-11T11:51:03.827Z,2.55
2023-03-11T11:53:31.477Z,2.75
2023-03-11T11:55:44.710Z,2.00
2023-03-11T11:57:53.351Z,1.20
2023-03-11T12:00:01.238Z,2.10
2023-03-11T12:02:26.531Z,1.27
2023-03-11T12:04:56.335Z,1.75
2023-03-11T12:07:17.449Z,1.33
2023-03-11T12:09:38.039Z,1.80
2023-03-11T12:11:53.938Z,0.93
2023-03-11T12:14:07.168Z,2.28
2023-03-11T12:16:23.919Z,2.10
2023-03-11T12:18:39.588Z,2.50
2023-03-11T12:20:53.273Z,2.55
2023-03-11T12:23:30.774Z,1.50
2023-03-11T12:25:51.481Z,3.65
2023-03-11T12:28:09.491Z,3.25
2023-03-11T12:30:22.274Z,2.03
2023-03-11T12:32:35.222Z,2.55
2023-03-11T12:34:43.214Z,1.95
2023-03-11T12:36:52.670Z,1.63
2023-03-11T12:39:02.209Z,2.38
2023-03-11T12:41:31.438Z,1.60
2023-03-11T12:44:02.146Z,1.52
2023-03-11T12:46:11.868Z,2.28
2023-03-11T12:48:47.433Z,1.90
2023-03-11T12:50:55.507Z,2.78
2023-03-11T12:53:03.973Z,1.63
2023-03-11T12:55:35.211Z,1.90
2023-03-11T12:57:57.627Z,7.30
2023-03-11T13:00:23.153Z,2.63
2023-03-11T13:02:59.843Z,1.83
2023-03-11T13:05:18.524Z,1.50
2023-03-11T13:07:46.232Z,1.63
2023-03-11T13:10:06.952Z,2.03
2023-03-11T13:12:43.373Z,2.08
2023-03-11T13:15:31.744Z,3.00
2023-03-11T13:17:40.240Z,2.50
2023-03-11T13:19:54.796Z,2.30
2023-03-11T13:22:06.847Z,3.63
2023-03-11T13:24:53.949Z,2.00
2023-03-11T13:27:11.280Z,2.10
2023-03-11T13:29:49.139Z,2.00
2023-03-11T13:32:39.128Z,1.80
2023-03-11T13:34:57.673Z,2.70
2023-03-11T13:37:19.544Z,1.95
2023-03-11T13:40:03.698Z,1.85
2023-03-11T13:42:27.941Z,1.80
2023-03-11T13:44:39.623Z,2.10
2023-03-11T13:46:50.384Z,2.28
2023-03-11T13:49:06.129Z,2.22
2023-03-11T13:51:22.146Z,1.75
2023-03-11T13:53:36.479Z,1.70
2023-03-11T13:55:47.828Z,2.00
2023-03-11T13:57:57.402Z,2.08
2023-03-11T14:00:18.290Z,2.05
2023-03-11T14:02:28.535Z,2.20
2023-03-11T14:04:39.460Z,2.78
2023-03-11T14:06:51.982Z,2.10
2023-03-11T14:09:00.611Z,2.33
2023-03-11T14:11:20.540Z,2.05
2023-03-11T14:13:32.819Z,17.58
2023-03-11T14:15:48.890Z,3.90
2023-03-11T14:18:17.452Z,14.57
2023-03-11T14:20:29.014Z,28.02
2023-03-11T14:22:43.060Z,2.80
2023-03-11T14:24:51.195Z,2.58
2023-03-11T14:27:03.036Z,2.95
2023-03-11T14:29:14.304Z,2.42
2023-03-11T14:31:32.234Z,4.03
2023-03-11T14:33:40.402Z,6.07
2023-03-11T14:35:55.943Z,8.70
2023-03-11T14:38:23.407Z,19.88
2023-03-11T14:40:34.113Z,3.65
2023-03-11T14:42:47.077Z,2.85
2023-03-11T14:45:01.846Z,2.90
2023-03-11T14:47:15.182Z,2.95
2023-03-11T14:49:26.050Z,2.33
2023-03-11T14:51:37.851Z,2.15
2023-03-11T14:53:51.074Z,5.32
2023-03-11T14:56:01.136Z,2.25
2023-03-11T14:58:16.782Z,3.95
2023-03-11T15:00:30.750Z,2.30
2023-03-11T15:02:47.670Z,2.08
2023-03-11T15:04:59.329Z,2.70
2023-03-11T15:07:08.188Z,5.20
2023-03-11T15:09:20.028Z,2.40
2023-03-11T15:11:28.804Z,4.25
2023-03-11T15:13:37.750Z,2.17
2023-03-11T15:15:47.333Z,2.13
2023-03-11T15:17:56.461Z,2.47
2023-03-11T15:20:04.860Z,2.35
2023-03-11T15:22:27.870Z,2.22
2023-03-11T15:24:38.371Z,2.22
2023-03-11T15:26:58.070Z,2.97
2023-03-11T15:29:15.849Z,2.30
2023-03-11T15:31:33.261Z,2.35
2023-03-11T15:33:42.808Z,2.83
2023-03-11T15:35:51.992Z,2.95
2023-03-11T15:38:16.588Z,2.97
2023-03-11T15:40:43.919Z,4.50
2023-03-11T15:43:06.725Z,2.63
2023-03-11T15:45:18.785Z,2.85
2023-03-11T15:47:26.958Z,3.20
2023-03-11T15:49:35.282Z,3.05
2023-03-11T15:51:43.032Z,3.03
2023-03-11T15:53:51.635Z,3.20
2023-03-11T15:56:07.774Z,2.95
2023-03-11T15:58:18.939Z,3.03
2023-03-11T16:00:27.419Z,3.13
2023-03-11T16:02:35.500Z,4.10
2023-03-11T16:04:44.779Z,3.33
2023-03-11T16:07:07.051Z,4.30
2023-03-11T16:09:16.405Z,2.40
2023-03-11T16:11:27.110Z,2.40
2023-03-11T16:13:34.891Z,2.00
2023-03-11T16:15:43.283Z,2.75
2023-03-11T16:17:51.712Z,3.78
2023-03-11T16:19:59.461Z,4.60
2023-03-11T16:22:07.638Z,2.90
2023-03-11T16:24:21.538Z,5.25
2023-03-11T16:26:32.851Z,5.05
2023-03-11T16:28:40.818Z,2.15
2023-03-11T16:30:49.255Z,2.67
2023-03-11T16:32:57.110Z,2.90
2023-03-11T16:35:05.379Z,3.22
2023-03-11T16:37:20.820Z,3.50
2023-03-11T16:39:28.760Z,2.85
2023-03-11T16:41:44.459Z,3.70
2023-03-11T16:43:52.208Z,3.25
2023-03-11T16:46:00.150Z,2.45
2023-03-11T16:48:08.550Z,2.00
2023-03-11T16:50:16.340Z,2.72
2023-03-11T16:52:24.660Z,4.22
2023-03-11T16:54:32.550Z,3.60
2023-03-11T16:56:42.962Z,6.03
2023-03-11T16:58:50.803Z,6.07
2023-03-11T17:00:58.571Z,3.50
2023-03-11T17:03:07.363Z,3.47
2023-03-11T17:05:15.414Z,2.65
2023-03-11T17:07:25.679Z,3.05
2023-03-11T17:09:33.564Z,5.78
2023-03-11T17:11:43.912Z,2.90
2023-03-11T17:13:53.376Z,3.20
2023-03-11T17:16:02.852Z,4.93
2023-03-11T17:18:10.988Z,3.53
2023-03-11T17:20:21.914Z,3.30
2023-03-11T17:22:29.747Z,4.20
2023-03-11T17:24:37.522Z,2.08
2023-03-11T17:26:48.966Z,2.30
2023-03-11T17:28:57.250Z,3.67
2023-03-11T17:31:06.806Z,2.75
2023-03-11T17:33:14.754Z,3.30
2023-03-11T17:35:22.652Z,2.83
2023-03-11T17:37:30.529Z,2.55
2023-03-11T17:39:38.692Z,3.20
2023-03-11T17:41:49.834Z,3.05
2023-03-11T17:43:58.228Z,3.13
2023-03-11T17:46:11.139Z,5.53
2023-03-11T17:48:21.324Z,3.33
2023-03-11T17:50:29.681Z,4.47
2023-03-11T17:52:37.507Z,4.05
2023-03-11T17:54:45.459Z,3.10
2023-03-11T17:56:57.496Z,4.15
2023-03-11T17:59:05.732Z,3.78
2023-03-11T18:01:17.410Z,4.00
2023-03-11T18:03:25.102Z,5.45
2023-03-11T18:05:32.813Z,4.43
2023-03-11T18:07:42.008Z,3.75
2023-03-11T18:09:53.634Z,4.00
2023-03-11T18:12:04.148Z,3.72
2023-03-11T18:14:12.726Z,2.92
2023-03-11T18:16:23.257Z,7.78
2023-03-11T18:18:33.106Z,3.25
2023-03-11T18:20:41.722Z,6.50
2023-03-11T18:22:49.933Z,4.13
2023-03-11T18:24:58.226Z,4.80
2023-03-11T18:27:08.928Z,4.15
2023-03-11T18:29:16.763Z,3.70
2023-03-11T18:31:27.377Z,4.45
2023-03-11T18:33:35.865Z,4.65
2023-03-11T18:35:43.916Z,4.88
2023-03-11T18:37:51.728Z,5.72
2023-03-11T18:39:59.545Z,4.55
2023-03-11T18:42:10.415Z,4.32
2023-03-11T18:44:18.272Z,4.40
2023-03-11T18:46:26.881Z,6.20
2023-03-11T18:48:34.838Z,4.53
2023-03-11T18:50:42.980Z,4.50
2023-03-11T18:52:53.455Z,2.92
2023-03-11T18:55:01.405Z,3.72
2023-03-11T18:57:12.225Z,3.40
2023-03-11T18:59:20.363Z,3.53
2023-03-11T19:01:29.125Z,4.78
2023-03-11T19:03:38.433Z,7.38
2023-03-11T19:05:50.944Z,5.72
2023-03-11T19:07:58.893Z,3.47
2023-03-11T19:10:07.440Z,4.07
2023-03-11T19:12:18.240Z,4.60
2023-03-11T19:14:26.270Z,3.75
2023-03-11T19:16:34.786Z,3.55
2023-03-11T19:18:42.929Z,4.75
2023-03-11T19:20:59.019Z,4.38
2023-03-11T19:23:07.154Z,6.57
2023-03-11T19:25:15.036Z,5.30
2023-03-11T19:27:25.612Z,8.45
2023-03-11T19:29:33.722Z,4.03
2023-03-11T19:31:43.615Z,3.17
2023-03-11T19:33:51.537Z,4.47
2023-03-11T19:36:01.002Z,3.95
2023-03-11T19:38:09.126Z,3.53
2023-03-11T19:40:18.318Z,6.40
2023-03-11T19:42:29.466Z,8.52
2023-03-11T19:44:37.383Z,3.95
2023-03-11T19:46:45.382Z,3.65
2023-03-11T19:48:56.747Z,7.85
2023-03-11T19:51:05.916Z,4.55
2023-03-11T19:53:14.208Z,5.28
2023-03-11T19:55:22.199Z,6.72
2023-03-11T19:57:33.482Z,6.25
2023-03-11T19:59:41.435Z,7.88
2023-03-11T20:01:49.326Z,6.95
2023-03-11T20:03:57.221Z,5.15
2023-03-11T20:06:09.638Z,8.90
2023-03-11T20:08:19.498Z,5.57
2023-03-11T20:10:27.577Z,7.95
2023-03-11T20:12:38.357Z,8.55
2023-03-11T20:14:46.849Z,8.88
2023-03-11T20:16:54.691Z,7.53
2023-03-11T20:19:02.786Z,7.00
2023-03-11T20:21:12.751Z,6.53
2023-03-11T20:23:20.778Z,6.85
2023-03-11T20:25:31.140Z,7.32
2023-03-11T20:27:42.206Z,9.73
2023-03-11T20:29:50.286Z,6.97
2023-03-11T20:31:58.261Z,8.35
2023-03-11T20:34:06.866Z,7.50
2023-03-11T20:36:17.737Z,7.45
2023-03-11T20:38:25.890Z,7.30
2023-03-11T20:40:35.405Z,7.55
2023-03-11T20:42:47.298Z,9.05
2023-03-11T20:44:55.747Z,7.90
2023-03-11T20:47:04.076Z,9.18
2023-03-11T20:49:12.467Z,8.23
2023-03-11T20:51:24.554Z,8.82
2023-03-11T20:53:33.387Z,9.65
2023-03-11T20:55:43.532Z,9.38
2023-03-11T20:57:54.449Z,10.80
2023-03-11T21:00:02.536Z,9.98
2023-03-11T21:02:13.211Z,12.73
2023-03-11T21:04:21.460Z,10.27
2023-03-11T21:06:32.070Z,6.90
2023-03-11T21:08:40.197Z,14.60
2023-03-11T21:10:48.116Z,12.35
2023-03-11T21:12:59.129Z,5.45
2023-03-11T21:15:09.688Z,5.60
2023-03-11T21:17:17.930Z,5.90
2023-03-11T21:19:25.908Z,7.47
2023-03-11T21:21:35.025Z,5.72
2023-03-11T21:23:44.043Z,6.97
2023-03-11T21:26:00.107Z,7.60
2023-03-11T21:28:13.553Z,7.30
2023-03-11T21:30:21.616Z,7.07
2023-03-11T21:32:31.671Z,6.70
2023-03-11T21:34:39.920Z,8.90
2023-03-11T21:36:47.758Z,8.68
2023-03-11T21:38:55.907Z,7.35
2023-03-11T21:41:15.122Z,7.40
2023-03-11T21:43:26.259Z,8.80
2023-03-11T21:45:34.120Z,10.13
2023-03-11T21:47:45.248Z,7.57
2023-03-11T21:49:53.816Z,13.45
2023-03-11T21:52:02.384Z,8.30
2023-03-11T21:54:11.022Z,9.27
2023-03-11T21:56:19.549Z,11.27
2023-03-11T21:58:40.146Z,10.95
2023-03-11T22:01:00.934Z,8.90
2023-03-11T22:03:10.111Z,9.68
2023-03-11T22:05:19.205Z,10.23
2023-03-11T22:07:27.278Z,8.48
2023-03-11T22:09:35.509Z,11.70
2023-03-11T22:11:43.811Z,8.73
2023-03-11T22:14:00.218Z,9.55
2023-03-11T22:16:09.759Z,9.93
2023-03-11T22:18:17.872Z,8.43
2023-03-11T22:20:25.822Z,10.85
2023-03-11T22:22:33.680Z,9.95
2023-03-11T22:24:41.682Z,9.20
2023-03-11T22:26:49.527Z,11.23
2023-03-11T22:29:01.850Z,14.15
2023-03-11T22:31:11.393Z,12.48
2023-03-11T22:33:21.178Z,10.73
2023-03-11T22:35:29.300Z,11.55
2023-03-11T22:37:37.235Z,11.18
2023-03-11T22:39:45.184Z,11.38
2023-03-11T22:41:53.142Z,17.55
2023-03-11T22:44:03.700Z,14.18
2023-03-11T22:46:11.679Z,11.80
2023-03-11T22:48:19.908Z,11.80
2023-03-11T22:50:27.753Z,11.48
2023-03-11T22:52:35.537Z,12.80
2023-03-11T22:54:43.298Z,11.85
2023-03-11T22:56:51.171Z,12.43
2023-03-11T22:58:59.432Z,10.02
2023-03-11T23:01:10.244Z,10.35
2023-03-11T23:03:18.101Z,11.80
2023-03-11T23:05:26.480Z,10.52
2023-03-11T23:07:34.446Z,12.10
2023-03-11T23:09:43.130Z,10.90
2023-03-11T23:11:51.591Z,10.75
2023-03-11T23:13:59.855Z,11.13
2023-03-11T23:16:19.161Z,11.82
2023-03-11T23:18:27.544Z,10.65
2023-03-11T23:20:38.625Z,10.13
2023-03-11T23:22:47.232Z,12.40
2023-03-11T23:24:56.183Z,9.75
2023-03-11T23:27:05.016Z,9.35
2023-03-11T23:29:14.858Z,9.85
2023-03-11T23:31:27.253Z,11.70
2023-03-11T23:33:35.095Z,12.05
2023-03-11T23:35:44.288Z,12.23
2023-03-11T23:37:52.870Z,12.05
2023-03-11T23:40:00.751Z,10.88
2023-03-11T23:42:24.438Z,18.20
2023-03-11T23:44:33.474Z,11.82
2023-03-11T23:46:44.018Z,12.77
2023-03-11T23:48:51.848Z,12.93
2023-03-11T23:51:00.113Z,15.55
2023-03-11T23:53:07.964Z,14.57
2023-03-11T23:55:16.229Z,15.98
2023-03-11T23:57:24.015Z,16.55
2023-03-11T23:59:31.754Z,20.17
